Time;durP1;ratioP1;P1;durP2;ratioP2;P2;SDS_P1;SDS_P2;PMS_P1;PMS_P2;Temp;Humidity;BMP_temperature;BMP_pressure;BME280_temperature;BME280_humidity;BME280_pressure;Samples;Min_cycle;Max_cycle;Signal;HPM_P1;HPM_P2
2023/10/09 00:08:21;;;;;;;21.10;14.70;;;;;;;-0.50;81.59;100309.08;435822;1256;139727;-64
2023/10/09 00:18:29;;;;;;;19.00;12.70;;;;;;;-0.39;82.40;100292.14;435501;1254;139651;-63
2023/10/09 00:28:36;;;;;;;16.50;10.90;;;;;;;-0.29;82.72;100273.98;435350;1257;140815;-63
2023/10/09 00:38:45;;;;;;;24.40;14.00;;;;;;;-0.16;83.18;100257.70;435474;1257;140270;-63
2023/10/09 00:48:53;;;;;;;19.90;14.60;;;;;;;-0.01;83.56;100247.23;435711;1257;140139;-63
2023/10/09 00:59:08;;;;;;;17.50;12.40;;;;;;;0.13;83.95;100236.94;435725;1256;139623;-62
2023/10/09 01:09:16;;;;;;;21.50;15.20;;;;;;;0.21;84.03;100228.94;435936;1254;139452;-63
2023/10/09 01:19:23;;;;;;;20.60;13.20;;;;;;;0.28;84.50;100226.44;436347;1254;140055;-64
2023/10/09 01:29:30;;;;;;;18.30;12.90;;;;;;;0.35;84.82;100221.02;435689;1256;140738;-62
2023/10/09 01:39:40;;;;;;;19.40;12.70;;;;;;;0.38;85.00;100210.48;435982;1255;141140;-63
2023/10/09 01:49:49;;;;;;;15.40;11.80;;;;;;;0.38;85.27;100206.86;435739;1255;140664;-62
2023/10/09 01:59:55;;;;;;;19.60;12.50;;;;;;;0.39;85.66;100196.34;435664;1254;141189;-62
2023/10/09 02:10:01;;;;;;;16.90;12.60;;;;;;;0.41;85.93;100184.44;435661;1254;139082;-64
2023/10/09 02:20:19;;;;;;;16.30;11.50;;;;;;;0.46;86.53;100173.17;435743;1256;140157;-65
2023/10/09 02:30:28;;;;;;;14.90;11.50;;;;;;;0.52;87.07;100178.61;435639;1256;140824;-63
2023/10/09 02:40:40;;;;;;;15.30;11.00;;;;;;;0.58;87.49;100187.33;435770;1256;139030;-64
2023/10/09 02:50:45;;;;;;;14.20;10.10;;;;;;;0.59;87.89;100177.67;436137;1254;139482;-63
2023/10/09 03:00:51;;;;;;;13.50;10.30;;;;;;;0.56;87.76;100149.11;436096;1254;140276;-65
2023/10/09 03:10:59;;;;;;;13.40;10.30;;;;;;;0.51;87.80;100142.98;436052;1254;140950;-62
2023/10/09 03:21:06;;;;;;;12.50;10.40;;;;;;;0.50;88.52;100137.46;435731;1253;139586;-64
2023/10/09 03:31:11;;;;;;;14.30;10.40;;;;;;;0.53;89.26;100117.79;435853;1255;140666;-64
2023/10/09 03:41:18;;;;;;;10.60;9.00;;;;;;;0.62;89.90;100099.92;435779;1253;140839;-64
2023/10/09 03:51:26;;;;;;;11.10;9.20;;;;;;;0.76;90.58;100092.11;435996;1254;139073;-64
2023/10/09 04:01:37;;;;;;;11.70;8.60;;;;;;;0.92;90.69;100076.70;436005;1253;138915;-63
2023/10/09 04:11:46;;;;;;;17.20;11.70;;;;;;;1.05;90.55;100077.52;436338;1256;138931;-64
2023/10/09 04:21:55;;;;;;;13.00;9.60;;;;;;;1.15;90.80;100074.76;435589;1253;139351;-63
2023/10/09 04:32:01;;;;;;;12.30;8.40;;;;;;;1.27;90.78;100037.30;436085;1254;139917;-63
2023/10/09 04:52:54;;;;;;;16.20;10.00;;;;;;;1.45;90.85;99976.40;435218;1256;138937;-63
2023/10/09 05:03:06;;;;;;;10.60;7.80;;;;;;;1.58;90.75;99950.08;436079;1253;139282;-69
2023/10/09 05:13:13;;;;;;;13.70;7.80;;;;;;;1.70;90.81;99936.20;435910;1256;138706;-70
2023/10/09 05:23:25;;;;;;;10.70;7.20;;;;;;;1.82;90.95;99941.64;435611;1254;138726;-60
2023/10/09 05:33:33;;;;;;;11.10;7.20;;;;;;;1.94;90.78;99943.43;435705;1253;138929;-59
2023/10/09 06:04:49;;;;;;;13.70;9.40;;;;;;;2.43;90.79;99923.98;436538;1253;140299;-61
2023/10/09 06:15:18;;;;;;;11.40;8.50;;;;;;;2.61;90.81;99917.80;435816;1256;139487;-61
2023/10/09 06:25:32;;;;;;;11.70;8.90;;;;;;;2.78;90.42;99916.86;436160;1256;139486;-65
2023/10/09 06:35:39;;;;;;;22.80;13.50;;;;;;;3.01;90.91;99906.73;435580;1255;139738;-61
2023/10/09 06:45:46;;;;;;;19.10;11.20;;;;;;;3.29;91.29;99905.42;435838;1252;138945;-59
2023/10/09 06:55:52;;;;;;;16.10;10.30;;;;;;;3.71;91.45;99899.69;435732;1254;138978;-60
2023/10/09 07:06:09;;;;;;;9.80;7.60;;;;;;;4.24;91.10;99880.36;435685;1253;140886;-67
2023/10/09 07:16:28;;;;;;;13.40;9.00;;;;;;;4.69;90.30;99861.31;436981;1252;138465;-65
2023/10/09 07:26:43;;;;;;;7.70;6.90;;;;;;;5.14;89.16;99866.46;436927;1253;181578;-59
2023/10/09 07:36:56;;;;;;;6.90;5.80;;;;;;;5.50;88.00;99876.27;435722;1253;138296;-68
2023/10/09 07:57:42;;;;;;;5.80;3.80;;;;;;;5.98;85.24;99887.95;436102;1253;138496;-63
2023/10/09 08:07:59;;;;;;;5.10;4.00;;;;;;;6.27;84.61;99898.95;436508;1252;139657;-64
2023/10/09 08:18:27;;;;;;;4.90;4.00;;;;;;;6.76;83.47;99906.84;435481;1253;139215;-63
2023/10/09 08:28:42;;;;;;;8.40;4.80;;;;;;;6.92;81.71;99905.12;435435;1254;140321;-62
2023/10/09 08:38:48;;;;;;;6.00;3.80;;;;;;;7.01;81.14;99905.61;435934;1254;138511;-61
2023/10/09 08:48:55;;;;;;;5.00;4.00;;;;;;;7.04;80.81;99887.88;435623;1254;139352;-62
2023/10/09 08:59:02;;;;;;;7.20;4.40;;;;;;;7.16;80.69;99877.23;436186;1252;138427;-62
2023/10/09 09:09:15;;;;;;;4.60;2.80;;;;;;;7.17;80.33;99883.11;436516;1256;138877;-63
2023/10/09 09:19:31;;;;;;;5.00;3.10;;;;;;;7.26;80.21;99891.42;436417;1252;138657;-62
2023/10/09 09:29:52;;;;;;;4.70;3.50;;;;;;;7.39;80.12;99880.06;435695;1253;138980;-62
2023/10/09 09:40:00;;;;;;;3.40;2.90;;;;;;;7.62;79.98;99864.52;437029;1254;139425;-62
2023/10/09 09:50:22;;;;;;;4.30;2.40;;;;;;;7.92;79.64;99843.94;435869;1254;139017;-62
2023/10/09 10:00:42;;;;;;;2.50;1.10;;;;;;;8.25;78.80;99834.10;436099;1253;140583;-68
2023/10/09 10:10:52;;;;;;;2.30;1.70;;;;;;;8.60;77.02;99817.73;435961;1253;141222;-63
2023/10/09 10:21:17;;;;;;;3.30;1.50;;;;;;;8.58;75.68;99797.61;435664;1255;139100;-62
2023/10/09 10:31:56;;;;;;;3.20;1.60;;;;;;;8.70;75.19;99792.60;435887;1254;138704;-65
2023/10/09 10:42:04;;;;;;;1.70;1.20;;;;;;;8.78;74.63;99775.92;436280;1256;138858;-68
2023/10/09 10:52:20;;;;;;;1.90;1.60;;;;;;;8.91;74.01;99753.61;436094;1254;138846;-65
2023/10/09 11:02:27;;;;;;;1.30;1.20;;;;;;;9.39;73.97;99746.63;435494;1251;139845;-65
2023/10/09 11:12:45;;;;;;;4.10;1.60;;;;;;;9.83;72.52;99752.67;435792;1256;139213;-63
2023/10/09 11:23:14;;;;;;;2.10;1.60;;;;;;;10.18;71.62;99761.15;435994;1255;139745;-63
2023/10/09 11:33:21;;;;;;;1.60;1.20;;;;;;;10.47;70.32;99746.83;436691;1253;139662;-63
2023/10/09 11:43:51;;;;;;;3.50;1.80;;;;;;;10.45;68.71;99737.31;436206;1253;139824;-66
2023/10/09 11:53:54;;;;;;;3.10;1.10;;;;;;;10.73;68.84;99735.45;436266;1254;140322;-64
2023/10/09 12:04:00;;;;;;;1.00;0.80;;;;;;;11.00;67.59;99722.40;436356;1254;139269;-74
2023/10/09 12:14:06;;;;;;;2.20;1.40;;;;;;;11.20;67.25;99725.67;436261;1253;138741;-74
2023/10/09 12:24:12;;;;;;;3.30;1.50;;;;;;;11.43;66.16;99710.52;438582;1255;140118;-65
2023/10/09 12:34:18;;;;;;;2.70;1.30;;;;;;;11.55;65.47;99694.11;435924;1255;139273;-67
2023/10/09 12:44:27;;;;;;;1.40;1.20;;;;;;;11.54;64.20;99694.75;435991;1254;138045;-68
2023/10/09 12:54:33;;;;;;;3.70;1.20;;;;;;;11.37;63.82;99686.58;436670;1251;138194;-64
2023/10/09 13:04:42;;;;;;;2.10;1.60;;;;;;;11.30;63.86;99687.17;436053;1255;139551;-63
2023/10/09 13:14:49;;;;;;;8.20;2.20;;;;;;;11.41;63.33;99688.05;436922;1253;138244;-63
2023/10/09 13:25:03;;;;;;;1.50;1.30;;;;;;;11.49;62.76;99687.17;436980;1255;138530;-69
2023/10/09 13:35:13;;;;;;;7.40;2.80;;;;;;;11.44;61.86;99686.05;437104;1255;139851;-64
2023/10/09 13:45:26;;;;;;;3.10;2.10;;;;;;;11.14;61.54;99660.84;437043;1253;137943;-63
2023/10/09 13:55:43;;;;;;;5.00;3.80;;;;;;;10.80;61.46;99655.88;436214;1253;139770;-63
2023/10/09 14:05:56;;;;;;;3.00;2.20;;;;;;;10.73;61.70;99630.77;436542;1253;139089;-65
2023/10/09 14:16:03;;;;;;;4.40;3.00;;;;;;;10.63;61.89;99625.23;436380;1255;138581;-63
2023/10/09 14:26:09;;;;;;;4.40;2.00;;;;;;;10.52;62.15;99634.33;436071;1252;140524;-64
2023/10/09 14:36:16;;;;;;;7.30;2.70;;;;;;;10.24;62.03;99632.85;435940;1255;139872;-64
2023/10/09 14:46:25;;;;;;;10.80;6.40;;;;;;;9.99;62.28;99632.80;436572;1254;138957;-63
2023/10/09 14:56:33;;;;;;;3.70;2.50;;;;;;;9.78;62.72;99644.41;436813;1255;138112;-63
2023/10/09 15:06:39;;;;;;;3.50;2.80;;;;;;;9.47;62.95;99653.50;436442;1255;139658;-62
2023/10/09 15:16:45;;;;;;;4.70;3.20;;;;;;;9.13;63.67;99662.63;436345;1256;138055;-63
2023/10/09 15:26:53;;;;;;;6.30;4.00;;;;;;;8.81;64.27;99668.41;436401;1256;137886;-63
2023/10/09 15:36:59;;;;;;;6.50;3.20;;;;;;;8.53;65.00;99678.13;436389;1254;139215;-64
2023/10/09 15:47:08;;;;;;;9.30;7.60;;;;;;;8.20;65.75;99690.15;436241;1255;139204;-64
2023/10/09 15:57:16;;;;;;;12.60;7.00;;;;;;;7.79;66.85;99690.33;436598;1254;139645;-63
2023/10/09 16:07:22;;;;;;;18.10;11.50;;;;;;;7.35;68.23;99711.80;436155;1254;138805;-63
2023/10/09 16:17:28;;;;;;;12.90;8.70;;;;;;;6.91;69.31;99709.04;436298;1256;139273;-64
2023/10/09 16:27:34;;;;;;;18.40;11.30;;;;;;;6.39;70.65;99716.23;436439;1255;138543;-62
2023/10/09 16:37:40;;;;;;;22.90;14.70;;;;;;;5.89;71.82;99724.11;436090;1255;138904;-66
2023/10/09 16:47:51;;;;;;;25.70;16.00;;;;;;;5.44;72.94;99727.67;436186;1253;138920;-69
2023/10/09 16:57:57;;;;;;;60.90;34.90;;;;;;;5.05;74.29;99749.52;436065;1251;138917;-60
2023/10/09 17:08:09;;;;;;;68.80;40.90;;;;;;;4.79;75.62;99766.10;436096;1256;139157;-65
2023/10/09 17:18:17;;;;;;;57.30;37.00;;;;;;;4.60;76.61;99773.21;435844;1256;139576;-59
2023/10/09 17:28:23;;;;;;;49.10;30.70;;;;;;;4.39;77.32;99778.25;436756;1255;139546;-61
2023/10/09 17:38:31;;;;;;;41.60;28.30;;;;;;;4.12;78.19;99783.20;436101;1255;138707;-62
2023/10/09 17:48:36;;;;;;;34.20;26.60;;;;;;;3.90;79.32;99776.30;436404;1255;139774;-62
2023/10/09 17:58:49;;;;;;;40.00;27.90;;;;;;;3.66;79.55;99777.95;436401;1255;139236;-76
2023/10/09 18:08:56;;;;;;;39.80;30.00;;;;;;;3.42;80.35;99786.67;438735;1251;138680;-65
2023/10/09 18:19:03;;;;;;;47.30;33.20;;;;;;;3.21;80.71;99785.76;436505;1255;138784;-67
2023/10/09 18:29:11;;;;;;;46.90;34.00;;;;;;;3.02;81.50;99779.76;436783;1254;139758;-65
2023/10/09 18:39:22;;;;;;;47.60;35.90;;;;;;;2.87;82.26;99781.04;436395;1256;138762;-64
2023/10/09 18:49:29;;;;;;;49.70;34.90;;;;;;;2.71;82.52;99788.59;438139;1253;139095;-62
2023/10/09 18:59:35;;;;;;;43.60;36.10;;;;;;;2.59;83.59;99788.94;436426;1256;139255;-67
2023/10/09 19:09:41;;;;;;;55.30;38.70;;;;;;;2.42;84.25;99785.08;436758;1255;138870;-73
2023/10/09 19:19:47;;;;;;;49.80;38.10;;;;;;;2.21;84.20;99794.25;436650;1256;138729;-65
2023/10/09 19:29:54;;;;;;;57.00;43.00;;;;;;;2.02;84.71;99795.27;436315;1251;138891;-66
2023/10/09 19:40:06;;;;;;;56.80;42.80;;;;;;;1.85;85.22;99805.02;436491;1251;139704;-69
2023/10/09 19:50:14;;;;;;;49.20;40.20;;;;;;;1.72;86.63;99810.67;436781;1257;138792;-70
2023/10/09 20:00:21;;;;;;;55.50;40.90;;;;;;;1.62;87.77;99802.96;436423;1251;139084;-71
2023/10/09 20:10:30;;;;;;;49.00;37.90;;;;;;;1.46;87.86;99806.63;436487;1256;138881;-68
2023/10/09 20:20:44;;;;;;;37.40;30.50;;;;;;;1.34;88.67;99813.96;436775;1256;138832;-72
2023/10/09 20:30:54;;;;;;;42.50;32.50;;;;;;;1.26;89.95;99818.09;438711;1256;138811;-64
2023/10/09 20:41:00;;;;;;;44.50;35.90;;;;;;;1.18;90.45;99826.73;436796;1256;138731;-74
2023/10/09 20:51:07;;;;;;;53.10;41.90;;;;;;;1.12;91.10;99825.30;438029;1256;139158;-76
2023/10/09 21:01:15;;;;;;;51.90;41.70;;;;;;;0.98;91.05;99830.24;439148;1251;138684;-70
2023/10/09 21:11:22;;;;;;;51.80;41.00;;;;;;;0.83;91.09;99844.85;437113;1257;138851;-63
2023/10/09 21:21:31;;;;;;;53.70;41.50;;;;;;;0.72;91.16;99836.96;436631;1251;138578;-67
2023/10/09 21:31:39;;;;;;;52.40;39.20;;;;;;;0.65;92.01;99833.98;436565;1254;139840;-65
2023/10/09 21:41:46;;;;;;;51.80;40.80;;;;;;;0.57;92.18;99838.95;436466;1255;139139;-64
2023/10/09 21:51:52;;;;;;;55.00;44.50;;;;;;;0.45;92.18;99842.29;436643;1256;138910;-65
2023/10/09 22:01:58;;;;;;;60.00;44.00;;;;;;;0.33;92.29;99847.66;436753;1251;139076;-64
2023/10/09 22:12:05;;;;;;;77.40;57.70;;;;;;;0.22;92.45;99849.74;436547;1255;139510;-66
2023/10/09 22:22:11;;;;;;;82.20;58.40;;;;;;;0.13;92.76;99861.77;437262;1251;139321;-64
2023/10/09 22:32:18;;;;;;;92.20;72.30;;;;;;;0.07;93.37;99867.04;436657;1255;138913;-63
2023/10/09 22:42:24;;;;;;;114.80;82.70;;;;;;;0.02;93.95;99856.63;436765;1256;139733;-64
2023/10/09 22:52:34;;;;;;;104.00;76.00;;;;;;;-0.05;94.25;99858.96;436834;1254;140270;-63
2023/10/09 23:02:56;;;;;;;93.90;70.80;;;;;;;-0.14;94.27;99868.58;436745;1251;139935;-64
2023/10/09 23:13:15;;;;;;;86.10;64.40;;;;;;;-0.25;94.67;99878.56;436633;1254;140645;-65
2023/10/09 23:23:26;;;;;;;84.00;65.30;;;;;;;-0.28;95.28;99890.64;436876;1253;140775;-65
2023/10/09 23:33:33;;;;;;;80.00;62.80;;;;;;;-0.33;95.71;99896.23;436678;1256;140579;-64
2023/10/09 23:43:45;;;;;;;86.30;65.30;;;;;;;-0.34;96.16;99898.30;436438;1251;140217;-63
2023/10/09 23:54:01;;;;;;;77.80;59.50;;;;;;;-0.45;95.94;99905.84;437086;1251;140679;-64
